createdAt,value
2017-07-29T00:01:27.895Z,15.63
2017-07-29T00:03:55.342Z,22.00
2017-07-29T00:06:23.044Z,16.17
2017-07-29T00:08:50.732Z,16.90
2017-07-29T00:11:18.574Z,12.30
2017-07-29T00:13:46.054Z,16.43
2017-07-29T00:16:13.889Z,14.50
2017-07-29T00:18:41.325Z,9.30
2017-07-29T00:21:08.788Z,14.97
2017-07-29T00:23:36.229Z,10.40
2017-07-29T00:26:03.671Z,13.93
2017-07-29T00:28:31.355Z,16.60
2017-07-29T00:30:58.801Z,14.77
2017-07-29T00:33:26.235Z,12.47
2017-07-29T00:35:53.699Z,12.90
2017-07-29T00:38:21.151Z,10.20
2017-07-29T00:40:48.596Z,10.33
2017-07-29T00:43:16.785Z,11.23
2017-07-29T00:45:44.227Z,12.20
2017-07-29T00:48:11.663Z,16.17
2017-07-29T00:50:39.477Z,12.77
2017-07-29T00:53:06.912Z,14.70
2017-07-29T00:55:34.362Z,10.20
2017-07-29T00:58:01.820Z,13.70
2017-07-29T01:00:29.265Z,18.47
2017-07-29T01:02:56.715Z,12.40
2017-07-29T01:05:24.508Z,14.83
2017-07-29T01:07:51.953Z,12.13
2017-07-29T01:10:19.393Z,14.23
2017-07-29T01:12:46.869Z,14.20
2017-07-29T01:15:14.312Z,13.13
2017-07-29T01:17:41.757Z,11.33
2017-07-29T01:20:09.214Z,18.10
2017-07-29T01:22:36.661Z,11.30
2017-07-29T01:25:04.106Z,15.53
2017-07-29T01:27:31.656Z,15.77
2017-07-29T01:29:59.096Z,13.40
2017-07-29T01:32:26.928Z,12.30
2017-07-29T01:34:54.652Z,9.80
2017-07-29T01:37:22.100Z,16.90
2017-07-29T01:39:49.552Z,18.20
2017-07-29T01:42:17.014Z,15.10
2017-07-29T01:44:44.451Z,8.37
2017-07-29T01:47:12.284Z,11.70
2017-07-29T01:49:39.756Z,8.53
2017-07-29T01:52:07.197Z,13.83
2017-07-29T01:54:34.639Z,12.13
2017-07-29T02:10:26.360Z,8.77
2017-07-29T02:12:53.800Z,13.20
2017-07-29T02:15:21.232Z,9.60
2017-07-29T02:17:48.699Z,7.37
2017-07-29T02:20:16.141Z,10.83
2017-07-29T02:22:43.578Z,7.23
2017-07-29T02:25:11.298Z,9.60
2017-07-29T02:27:38.737Z,8.73
2017-07-29T02:30:06.173Z,9.07
2017-07-29T02:32:33.634Z,9.97
2017-07-29T02:35:01.073Z,11.33
2017-07-29T02:37:28.518Z,19.70
2017-07-29T02:39:56.068Z,6.93
2017-07-29T02:42:23.508Z,7.80
2017-07-29T02:44:50.940Z,7.30
2017-07-29T02:47:18.412Z,10.57
2017-07-29T02:49:46.248Z,8.50
2017-07-29T02:52:13.708Z,7.53
2017-07-29T02:54:41.185Z,6.23
2017-07-29T02:57:09.024Z,6.80
2017-07-29T02:59:36.466Z,7.60
2017-07-29T03:02:04.132Z,5.80
2017-07-29T03:04:31.572Z,9.93
2017-07-29T03:06:59.017Z,11.23
2017-07-29T03:09:26.796Z,10.10
2017-07-29T03:11:54.241Z,9.10
2017-07-29T03:14:21.679Z,8.90
2017-07-29T03:16:49.136Z,17.03
2017-07-29T03:19:16.583Z,8.10
2017-07-29T03:21:44.018Z,9.20
2017-07-29T03:24:11.464Z,6.70
2017-07-29T03:26:38.904Z,6.93
2017-07-29T03:29:06.344Z,7.70
2017-07-29T03:31:33.812Z,9.53
2017-07-29T03:34:01.248Z,9.93
2017-07-29T03:36:28.689Z,8.50
2017-07-29T03:38:56.460Z,8.60
2017-07-29T03:41:23.900Z,10.30
2017-07-29T03:43:51.349Z,14.40
2017-07-29T03:46:18.804Z,20.63
2017-07-29T03:48:46.247Z,14.07
2017-07-29T03:51:13.684Z,7.20
2017-07-29T03:53:41.553Z,9.97
2017-07-29T03:56:08.997Z,12.70
2017-07-29T03:58:36.827Z,12.27
2017-07-29T04:01:04.680Z,10.40
2017-07-29T04:03:32.125Z,10.97
2017-07-29T04:05:59.568Z,16.53
2017-07-29T04:08:27.359Z,13.77
2017-07-29T04:10:54.805Z,13.33
2017-07-29T04:13:22.241Z,16.70
2017-07-29T04:15:50.027Z,12.77
2017-07-29T04:18:17.472Z,11.63
2017-07-29T04:20:44.917Z,10.30
2017-07-29T04:23:12.370Z,13.70
2017-07-29T04:25:39.811Z,11.83
2017-07-29T04:28:07.253Z,17.63
2017-07-29T04:30:35.064Z,9.83
2017-07-29T04:33:02.636Z,11.13
2017-07-29T04:35:30.075Z,10.90
2017-07-29T04:37:57.843Z,13.03
2017-07-29T04:40:25.287Z,11.77
2017-07-29T04:42:52.727Z,10.07
2017-07-29T04:45:20.184Z,13.03
2017-07-29T04:47:47.635Z,10.93
2017-07-29T04:50:15.088Z,10.50
2017-07-29T04:52:42.547Z,12.77
2017-07-29T04:55:09.992Z,13.70
2017-07-29T04:57:37.434Z,15.60
2017-07-29T05:00:04.904Z,13.13
2017-07-29T05:02:32.353Z,18.87
2017-07-29T05:04:59.786Z,12.00
2017-07-29T05:07:27.656Z,14.97
2017-07-29T05:09:55.097Z,17.07
2017-07-29T05:12:23.068Z,13.10
2017-07-29T05:14:50.529Z,12.00
2017-07-29T05:17:19.317Z,13.33
2017-07-29T05:19:46.760Z,18.73
2017-07-29T05:22:15.107Z,14.93
2017-07-29T05:24:42.548Z,14.70
2017-07-29T05:27:09.993Z,14.90
2017-07-29T05:29:37.775Z,12.03
2017-07-29T05:32:05.236Z,14.20
2017-07-29T05:34:32.679Z,17.17
2017-07-29T05:37:00.162Z,15.67
2017-07-29T05:39:27.603Z,17.80
2017-07-29T05:41:55.051Z,12.57
2017-07-29T05:44:22.541Z,13.20
2017-07-29T05:46:49.960Z,17.50
2017-07-29T05:49:17.417Z,15.20
2017-07-29T05:51:44.884Z,16.13
2017-07-29T05:54:12.329Z,13.60
2017-07-29T05:56:39.771Z,14.53
2017-07-29T05:59:07.444Z,14.37
2017-07-29T06:01:34.893Z,14.90
2017-07-29T06:04:02.336Z,19.30
2017-07-29T06:06:29.817Z,14.67
2017-07-29T06:08:57.261Z,13.00
2017-07-29T06:11:24.724Z,14.67
2017-07-29T06:13:52.480Z,13.23
2017-07-29T06:16:19.929Z,13.63
2017-07-29T06:18:47.584Z,15.70
2017-07-29T06:21:15.040Z,12.07
2017-07-29T06:23:42.489Z,14.20
2017-07-29T06:26:09.939Z,16.70
2017-07-29T06:28:37.726Z,13.57
2017-07-29T06:31:05.181Z,15.20
2017-07-29T06:33:32.630Z,16.00
2017-07-29T06:36:00.084Z,16.10
2017-07-29T06:38:27.537Z,19.37
2017-07-29T06:40:54.984Z,20.70
2017-07-29T06:43:22.440Z,16.33
2017-07-29T06:45:49.889Z,14.17
2017-07-29T06:48:17.336Z,14.83
2017-07-29T06:50:45.053Z,15.40
2017-07-29T06:53:12.900Z,17.03
2017-07-29T06:55:40.349Z,15.20
2017-07-29T06:58:08.413Z,19.43
2017-07-29T07:00:35.860Z,15.70
2017-07-29T07:03:03.309Z,11.57
2017-07-29T07:05:30.776Z,13.30
2017-07-29T07:07:58.228Z,14.23
2017-07-29T07:10:25.678Z,18.63
2017-07-29T07:12:53.142Z,14.43
2017-07-29T07:15:20.607Z,16.03
2017-07-29T07:17:48.061Z,14.40
2017-07-29T07:20:15.536Z,12.13
2017-07-29T07:22:43.384Z,17.60
2017-07-29T07:25:10.840Z,17.00
2017-07-29T07:27:38.564Z,14.90
2017-07-29T07:30:06.022Z,14.30
2017-07-29T07:32:33.471Z,12.10
2017-07-29T07:35:00.943Z,12.77
2017-07-29T07:37:28.383Z,11.90
2017-07-29T07:39:55.832Z,13.63
2017-07-29T07:42:23.317Z,12.87
2017-07-29T07:44:50.759Z,13.33
2017-07-29T07:47:18.204Z,13.80
2017-07-29T07:49:45.669Z,12.40
2017-07-29T07:52:13.114Z,16.03
2017-07-29T07:54:40.567Z,13.07
2017-07-29T07:57:08.040Z,12.50
2017-07-29T07:59:35.485Z,15.17
2017-07-29T08:02:02.939Z,19.40
2017-07-29T08:04:30.403Z,10.80
2017-07-29T08:06:57.853Z,14.53
2017-07-29T08:09:25.300Z,11.80
2017-07-29T08:11:52.760Z,11.20
2017-07-29T08:14:20.204Z,12.10
2017-07-29T08:16:47.667Z,15.60
2017-07-29T08:19:15.208Z,13.10
2017-07-29T08:21:42.657Z,12.43
2017-07-29T08:24:10.100Z,14.63
2017-07-29T08:26:37.976Z,12.30
2017-07-29T08:29:05.419Z,17.67
2017-07-29T08:31:32.877Z,13.93
2017-07-29T08:34:00.339Z,18.53
2017-07-29T08:36:27.788Z,13.40
2017-07-29T08:38:55.627Z,18.53
2017-07-29T08:41:23.496Z,22.33
2017-07-29T08:43:51.344Z,15.70
2017-07-29T08:46:18.793Z,16.20
2017-07-29T08:48:46.260Z,16.70
2017-07-29T08:51:13.712Z,16.30
2017-07-29T08:53:41.160Z,16.50
2017-07-29T08:56:08.812Z,16.97
2017-07-29T08:58:36.260Z,13.43
2017-07-29T09:01:03.712Z,13.47
2017-07-29T09:03:31.372Z,17.13
2017-07-29T09:05:58.819Z,15.93
2017-07-29T09:08:26.268Z,14.53
2017-07-29T09:10:53.740Z,18.30
2017-07-29T09:13:21.185Z,14.00
2017-07-29T09:15:48.636Z,15.87
2017-07-29T09:18:16.113Z,18.20
2017-07-29T09:20:43.572Z,15.60
2017-07-29T09:23:11.013Z,14.63
2017-07-29T09:25:38.484Z,15.23
2017-07-29T09:28:05.935Z,15.43
2017-07-29T09:30:33.387Z,17.10
2017-07-29T09:33:01.028Z,18.23
2017-07-29T09:35:28.481Z,16.47
2017-07-29T09:37:55.941Z,24.70
2017-07-29T09:40:23.411Z,12.87
2017-07-29T09:42:50.856Z,11.67
2017-07-29T09:45:18.300Z,16.00
2017-07-29T09:47:45.772Z,13.33
2017-07-29T09:50:13.221Z,14.40
2017-07-29T09:52:40.676Z,13.63
2017-07-29T09:55:08.361Z,16.90
2017-07-29T09:57:35.808Z,16.90
2017-07-29T10:00:03.251Z,15.33
2017-07-29T10:02:30.713Z,13.43
2017-07-29T10:04:58.167Z,12.80
2017-07-29T10:07:25.611Z,17.87
2017-07-29T10:09:56.061Z,23.67
2017-07-29T10:12:23.521Z,15.30
2017-07-29T10:14:50.960Z,23.17
2017-07-29T10:17:18.624Z,10.90
2017-07-29T10:19:46.064Z,12.50
2017-07-29T10:22:13.532Z,14.93
2017-07-29T10:24:41.084Z,13.20
2017-07-29T10:27:08.531Z,14.53
2017-07-29T10:29:35.995Z,12.50
2017-07-29T10:32:03.759Z,12.77
2017-07-29T10:34:31.204Z,19.67
2017-07-29T10:36:58.649Z,10.20
2017-07-29T10:39:26.117Z,13.63
2017-07-29T10:41:53.572Z,14.10
2017-07-29T10:44:21.024Z,12.80
2017-07-29T10:46:48.585Z,13.67
2017-07-29T10:49:16.034Z,13.47
2017-07-29T10:51:43.483Z,13.40
2017-07-29T10:54:11.061Z,18.30
2017-07-29T10:56:38.684Z,15.27
2017-07-29T10:59:06.129Z,14.73
2017-07-29T11:01:33.607Z,12.57
2017-07-29T11:04:01.062Z,13.30
2017-07-29T11:06:28.517Z,13.57
2017-07-29T11:08:55.993Z,15.10
2017-07-29T11:11:23.436Z,13.80
2017-07-29T11:13:50.897Z,12.00
2017-07-29T11:16:18.418Z,10.53
2017-07-29T11:18:45.865Z,11.50
2017-07-29T11:21:13.327Z,14.17
2017-07-29T11:23:41.335Z,15.10
2017-07-29T11:26:08.956Z,12.63
2017-07-29T11:28:36.443Z,11.80
2017-07-29T11:31:04.047Z,11.80
2017-07-29T11:33:31.920Z,11.50
2017-07-29T11:35:59.387Z,12.40
2017-07-29T11:38:26.855Z,14.07
2017-07-29T11:40:54.309Z,9.60
2017-07-29T11:43:21.752Z,12.90
2017-07-29T11:45:49.264Z,10.50
2017-07-29T11:48:16.707Z,12.70
2017-07-29T11:50:44.148Z,11.00
2017-07-29T11:53:11.825Z,13.30
2017-07-29T11:55:39.284Z,12.47
2017-07-29T11:58:06.735Z,15.30
2017-07-29T12:00:34.209Z,14.60
2017-07-29T12:03:01.658Z,16.23
2017-07-29T12:05:29.105Z,16.37
2017-07-29T12:07:56.579Z,26.27
2017-07-29T12:10:24.500Z,17.27
2017-07-29T12:12:51.970Z,18.80
2017-07-29T12:15:19.460Z,16.70
2017-07-29T12:17:47.310Z,20.13
2017-07-29T12:20:14.822Z,21.23
2017-07-29T12:22:42.547Z,17.50
2017-07-29T12:25:10.403Z,17.87
2017-07-29T12:27:38.252Z,19.90
2017-07-29T12:30:05.817Z,20.10
2017-07-29T12:32:33.272Z,20.07
2017-07-29T12:35:00.716Z,17.60
2017-07-29T12:37:28.372Z,22.47
2017-07-29T12:39:55.816Z,18.37
2017-07-29T12:42:23.267Z,17.53
2017-07-29T12:44:50.729Z,15.30
2017-07-29T12:47:18.176Z,17.53
2017-07-29T12:49:45.627Z,19.83
2017-07-29T12:52:13.104Z,17.70
2017-07-29T12:54:40.556Z,15.50
2017-07-29T12:57:08.007Z,16.60
2017-07-29T12:59:35.490Z,16.73
2017-07-29T13:02:02.940Z,16.03
2017-07-29T13:04:30.400Z,14.30
2017-07-29T13:06:57.870Z,15.73
2017-07-29T13:09:25.348Z,15.33
2017-07-29T13:11:52.798Z,18.23
2017-07-29T13:14:20.275Z,20.90
2017-07-29T13:16:47.725Z,17.57
2017-07-29T13:19:15.268Z,14.57
2017-07-29T13:21:42.735Z,13.97
2017-07-29T13:24:10.207Z,18.73
2017-07-29T13:26:37.653Z,16.10
2017-07-29T13:29:05.134Z,16.23
2017-07-29T13:31:32.582Z,14.23
2017-07-29T13:34:00.091Z,18.03
2017-07-29T13:36:27.885Z,14.13
2017-07-29T13:38:55.340Z,14.50
2017-07-29T13:41:23.032Z,13.57
2017-07-29T13:43:50.529Z,14.17
2017-07-29T13:46:17.965Z,12.60
2017-07-29T13:48:45.811Z,9.70
2017-07-29T13:51:13.565Z,7.80
2017-07-29T13:53:41.008Z,8.33
2017-07-29T13:56:08.456Z,7.23
2017-07-29T13:58:35.937Z,7.17
2017-07-29T14:01:03.384Z,9.80
2017-07-29T14:03:30.829Z,5.93
2017-07-29T14:05:58.300Z,8.97
2017-07-29T14:08:25.744Z,5.80
2017-07-29T14:10:53.724Z,6.70
2017-07-29T14:13:21.453Z,6.20
2017-07-29T14:15:48.936Z,5.40
2017-07-29T14:18:16.389Z,5.00
2017-07-29T14:20:43.895Z,6.40
2017-07-29T14:23:11.366Z,6.47
2017-07-29T14:25:38.812Z,5.67
2017-07-29T14:28:06.257Z,5.23
2017-07-29T14:30:33.736Z,4.90
2017-07-29T14:33:01.176Z,5.93
2017-07-29T14:35:28.616Z,5.03
2017-07-29T14:37:56.089Z,6.20
2017-07-29T14:40:23.658Z,4.30
2017-07-29T14:42:51.105Z,4.53
2017-07-29T14:45:19.183Z,6.80
2017-07-29T14:47:46.742Z,6.30
2017-07-29T14:50:14.164Z,5.40
2017-07-29T14:52:41.613Z,5.47
2017-07-29T14:55:09.095Z,4.70
2017-07-29T14:57:36.544Z,3.60
2017-07-29T15:00:03.981Z,4.17
2017-07-29T15:02:32.123Z,4.50
2017-07-29T15:04:59.564Z,4.77
2017-07-29T15:07:27.014Z,4.17
2017-07-29T15:09:54.478Z,4.20
2017-07-29T15:12:21.908Z,4.10
2017-07-29T15:14:49.361Z,5.13
2017-07-29T15:17:17.164Z,3.80
2017-07-29T15:19:44.604Z,4.17
2017-07-29T15:22:12.044Z,4.40
2017-07-29T15:24:39.501Z,3.97
2017-07-29T15:27:06.945Z,4.00
2017-07-29T15:29:34.381Z,5.23
2017-07-29T15:32:01.857Z,3.90
2017-07-29T15:34:29.305Z,3.50
2017-07-29T15:36:56.744Z,4.57
2017-07-29T15:39:24.299Z,3.07
2017-07-29T15:41:51.735Z,3.80
2017-07-29T15:44:19.576Z,3.07
2017-07-29T15:46:47.139Z,2.77
2017-07-29T15:49:14.585Z,4.33
2017-07-29T15:51:42.035Z,4.30
2017-07-29T15:54:09.501Z,3.10
2017-07-29T15:56:36.948Z,3.37
2017-07-29T15:59:04.391Z,5.30
2017-07-29T16:01:32.104Z,4.20
2017-07-29T16:03:59.550Z,3.40
2017-07-29T16:06:26.988Z,4.77
2017-07-29T16:08:54.456Z,5.10
2017-07-29T16:11:21.899Z,4.30
2017-07-29T16:13:49.345Z,4.07
2017-07-29T16:16:16.808Z,4.13
2017-07-29T16:18:44.261Z,5.90
2017-07-29T16:21:11.708Z,6.10
2017-07-29T16:23:39.163Z,5.20
2017-07-29T16:26:06.609Z,3.93
2017-07-29T16:28:34.052Z,5.97
2017-07-29T16:31:01.820Z,3.47
2017-07-29T16:33:29.270Z,4.37
2017-07-29T16:35:56.725Z,4.17
2017-07-29T16:38:24.271Z,4.63
2017-07-29T16:40:51.718Z,4.50
2017-07-29T16:43:19.159Z,11.97
2017-07-29T16:45:46.631Z,4.40
2017-07-29T16:48:14.087Z,3.63
2017-07-29T16:53:15.593Z,3.90
2017-07-29T16:55:43.032Z,5.40
2017-07-29T16:58:10.476Z,4.17
2017-07-29T17:00:38.153Z,9.27
2017-07-29T17:03:05.595Z,4.90
2017-07-29T17:05:33.043Z,4.97
2017-07-29T17:08:00.531Z,4.30
2017-07-29T17:10:27.976Z,5.80
2017-07-29T17:12:55.425Z,6.00
2017-07-29T17:15:22.909Z,5.60
2017-07-29T17:17:50.347Z,5.10
2017-07-29T17:20:17.787Z,5.13
2017-07-29T17:22:45.360Z,5.27
2017-07-29T17:25:12.804Z,7.70
2017-07-29T17:27:40.252Z,6.27
2017-07-29T17:30:07.920Z,9.10
2017-07-29T17:32:35.364Z,7.50
2017-07-29T17:35:02.811Z,7.63
2017-07-29T17:37:30.295Z,6.50
2017-07-29T17:39:57.736Z,5.70
2017-07-29T17:42:25.175Z,6.80
2017-07-29T17:44:52.632Z,6.23
2017-07-29T17:47:20.074Z,5.77
2017-07-29T17:49:47.525Z,6.17
2017-07-29T17:52:15.416Z,7.23
2017-07-29T17:54:42.868Z,8.33
2017-07-29T17:57:10.309Z,7.33
2017-07-29T17:59:37.763Z,7.77
2017-07-29T18:02:05.210Z,6.67
2017-07-29T18:04:32.643Z,7.30
2017-07-29T18:07:00.115Z,7.43
2017-07-29T18:09:27.564Z,8.90
2017-07-29T18:11:55.008Z,8.73
2017-07-29T18:14:22.476Z,9.30
2017-07-29T18:16:49.929Z,11.23
2017-07-29T18:19:17.373Z,8.77
2017-07-29T18:21:45.085Z,10.80
2017-07-29T18:24:12.534Z,11.30
2017-07-29T18:26:39.980Z,10.07
2017-07-29T18:29:07.450Z,10.67
2017-07-29T18:31:34.922Z,9.70
2017-07-29T18:34:02.340Z,8.70
2017-07-29T18:36:29.832Z,9.83
2017-07-29T18:38:57.278Z,9.63
2017-07-29T18:41:24.728Z,8.87
2017-07-29T18:43:52.488Z,8.00
2017-07-29T18:46:19.933Z,7.93
2017-07-29T18:48:47.389Z,7.67
2017-07-29T18:51:14.855Z,7.43
2017-07-29T18:53:42.299Z,8.27
2017-07-29T18:56:09.740Z,9.13
2017-07-29T18:58:37.196Z,7.13
2017-07-29T19:01:04.667Z,6.07
2017-07-29T19:03:32.100Z,6.30
2017-07-29T19:05:59.888Z,8.97
2017-07-29T19:08:27.337Z,6.20
2017-07-29T19:10:54.783Z,6.43
2017-07-29T19:13:22.260Z,7.47
2017-07-29T19:15:49.709Z,6.53
2017-07-29T19:18:17.169Z,12.23
2017-07-29T19:20:44.632Z,6.37
2017-07-29T19:23:12.082Z,4.33
2017-07-29T19:25:39.532Z,4.73
2017-07-29T19:28:07.004Z,5.00
2017-07-29T19:30:34.453Z,4.57
2017-07-29T19:33:01.899Z,3.77
2017-07-29T19:35:29.452Z,4.77
2017-07-29T19:37:56.894Z,6.17
2017-07-29T19:40:24.337Z,4.50
2017-07-29T19:42:51.896Z,4.73
2017-07-29T19:45:19.337Z,5.03
2017-07-29T19:47:46.777Z,5.00
2017-07-29T19:50:14.249Z,4.33
2017-07-29T19:52:41.687Z,3.53
2017-07-29T19:55:09.145Z,4.50
2017-07-29T19:57:36.626Z,4.13
2017-07-29T20:00:04.077Z,4.07
2017-07-29T20:02:31.525Z,7.20
2017-07-29T20:04:58.995Z,4.90
2017-07-29T20:07:26.436Z,4.70
2017-07-29T20:09:53.880Z,5.20
2017-07-29T20:12:21.368Z,5.17
2017-07-29T20:14:48.821Z,4.80
2017-07-29T20:17:16.331Z,4.10
2017-07-29T20:19:43.816Z,5.00
2017-07-29T20:22:11.275Z,5.30
2017-07-29T20:24:38.717Z,5.10
2017-07-29T20:27:06.200Z,4.57
2017-07-29T20:29:33.664Z,6.03
2017-07-29T20:32:01.116Z,7.83
2017-07-29T20:34:28.597Z,7.00
2017-07-29T20:36:56.045Z,6.83
2017-07-29T20:39:23.488Z,6.00
2017-07-29T20:41:51.229Z,8.37
2017-07-29T20:44:18.668Z,8.73
2017-07-29T20:46:46.112Z,7.43
2017-07-29T20:49:13.580Z,7.80
2017-07-29T20:51:41.030Z,6.20
2017-07-29T20:54:08.472Z,8.10
2017-07-29T20:56:36.292Z,6.70
2017-07-29T20:59:03.732Z,7.77
2017-07-29T21:01:31.176Z,5.30
2017-07-29T21:03:58.737Z,7.20
2017-07-29T21:06:26.187Z,6.90
2017-07-29T21:08:53.620Z,5.10
2017-07-29T21:11:21.085Z,5.13
2017-07-29T21:13:48.524Z,9.27
2017-07-29T21:16:15.967Z,4.93
2017-07-29T21:18:43.439Z,5.00
2017-07-29T21:21:10.888Z,6.10
2017-07-29T21:23:38.325Z,6.97
2017-07-29T21:26:06.486Z,5.47
2017-07-29T21:28:33.936Z,9.50
2017-07-29T21:31:01.381Z,6.43
2017-07-29T21:33:29.148Z,6.80
2017-07-29T21:35:56.584Z,6.77
2017-07-29T21:38:24.026Z,6.10
2017-07-29T21:40:51.719Z,6.70
2017-07-29T21:43:19.182Z,6.87
2017-07-29T21:45:46.628Z,10.57
2017-07-29T21:48:14.092Z,8.93
2017-07-29T21:50:41.532Z,7.43
2017-07-29T21:53:08.972Z,9.00
2017-07-29T21:55:36.769Z,8.67
2017-07-29T21:58:04.196Z,8.70
2017-07-29T22:00:31.640Z,14.10
2017-07-29T22:02:59.111Z,8.80
2017-07-29T22:05:26.557Z,8.80
2017-07-29T22:07:54.007Z,11.73
2017-07-29T22:10:21.597Z,10.60
2017-07-29T22:12:49.036Z,8.67
2017-07-29T22:15:16.473Z,10.77
2017-07-29T22:17:44.156Z,10.00
2017-07-29T22:20:11.598Z,8.73
2017-07-29T22:22:39.052Z,8.90
2017-07-29T22:25:06.699Z,9.77
2017-07-29T22:27:34.144Z,10.83
2017-07-29T22:30:01.595Z,10.97
2017-07-29T22:32:29.052Z,11.73
2017-07-29T22:34:56.497Z,11.00
2017-07-29T22:37:23.944Z,11.27
2017-07-29T22:39:51.561Z,9.30
2017-07-29T22:42:19.008Z,8.90
2017-07-29T22:44:46.451Z,8.73
2017-07-29T22:47:13.924Z,8.27
2017-07-29T22:49:41.373Z,9.20
2017-07-29T22:52:08.819Z,10.27
2017-07-29T22:54:36.515Z,9.43
2017-07-29T22:57:04.356Z,8.23
2017-07-29T22:59:31.800Z,8.53
2017-07-29T23:01:59.648Z,9.30
2017-07-29T23:04:27.085Z,11.33
2017-07-29T23:06:54.534Z,10.73
2017-07-29T23:09:22.262Z,9.77
2017-07-29T23:11:49.704Z,9.70
2017-07-29T23:14:17.149Z,12.60
2017-07-29T23:16:44.916Z,10.87
2017-07-29T23:19:12.364Z,10.00
2017-07-29T23:21:39.808Z,9.40
2017-07-29T23:24:07.525Z,10.87
2017-07-29T23:26:34.981Z,10.13
2017-07-29T23:29:02.816Z,8.77
2017-07-29T23:31:30.569Z,9.80
2017-07-29T23:33:58.012Z,10.20
2017-07-29T23:36:25.455Z,8.67
2017-07-29T23:38:53.003Z,11.50
2017-07-29T23:41:20.441Z,15.80
2017-07-29T23:43:47.883Z,10.57
2017-07-29T23:46:16.123Z,10.07
2017-07-29T23:48:43.564Z,11.23
2017-07-29T23:51:11.009Z,9.40
2017-07-29T23:53:38.479Z,13.23
2017-07-29T23:56:05.932Z,8.60
2017-07-29T23:58:33.368Z,11.87
